sensor_id;sensor_type;location;lat;lon;timestamp;pressure;altitude;pressure_sealevel;temperature;humidity
66381;BME280;53177;52.648;1.214;2022-12-29T00:01:14;98681.16;;;8.47;100.00
66381;BME280;53177;52.648;1.214;2022-12-29T00:03:39;98684.97;;;8.41;100.00
66381;BME280;53177;52.648;1.214;2022-12-29T00:06:05;98682.31;;;8.35;100.00
66381;BME280;53177;52.648;1.214;2022-12-29T00:08:30;98681.75;;;8.39;100.00
66381;BME280;53177;52.648;1.214;2022-12-29T00:11:10;98680.16;;;8.38;100.00
66381;BME280;53177;52.648;1.214;2022-12-29T00:13:36;98665.72;;;8.33;100.00
66381;BME280;53177;52.648;1.214;2022-12-29T00:16:20;98666.81;;;8.32;100.00
66381;BME280;53177;52.648;1.214;2022-12-29T00:18:45;98670.34;;;8.28;100.00
66381;BME280;53177;52.648;1.214;2022-12-29T00:21:16;98649.16;;;8.31;100.00
66381;BME280;53177;52.648;1.214;2022-12-29T00:24:00;98635.25;;;8.29;100.00
66381;BME280;53177;52.648;1.214;2022-12-29T00:26:45;98644.53;;;8.42;100.00
66381;BME280;53177;52.648;1.214;2022-12-29T00:29:30;98645.91;;;8.40;100.00
66381;BME280;53177;52.648;1.214;2022-12-29T00:32:14;98646.91;;;8.44;100.00
66381;BME280;53177;52.648;1.214;2022-12-29T00:34:58;98662.19;;;8.43;100.00
66381;BME280;53177;52.648;1.214;2022-12-29T00:37:42;98651.16;;;8.50;100.00
66381;BME280;53177;52.648;1.214;2022-12-29T00:40:27;98651.66;;;8.52;100.00
66381;BME280;53177;52.648;1.214;2022-12-29T00:43:11;98635.59;;;8.52;100.00
66381;BME280;53177;52.648;1.214;2022-12-29T00:45:55;98633.81;;;8.42;100.00
66381;BME280;53177;52.648;1.214;2022-12-29T00:48:21;98649.66;;;8.39;100.00
66381;BME280;53177;52.648;1.214;2022-12-29T00:51:07;98640.03;;;8.38;100.00
66381;BME280;53177;52.648;1.214;2022-12-29T00:53:33;98636.28;;;8.33;100.00
66381;BME280;53177;52.648;1.214;2022-12-29T00:55:59;98642.53;;;8.24;100.00
66381;BME280;53177;52.648;1.214;2022-12-29T00:58:30;98629.97;;;8.24;100.00
66381;BME280;53177;52.648;1.214;2022-12-29T01:01:07;98626.84;;;8.17;100.00
66381;BME280;53177;52.648;1.214;2022-12-29T01:03:34;98631.38;;;8.17;100.00
66381;BME280;53177;52.648;1.214;2022-12-29T01:06:01;98625.22;;;8.16;100.00
66381;BME280;53177;52.648;1.214;2022-12-29T01:08:27;98622.28;;;8.18;100.00
66381;BME280;53177;52.648;1.214;2022-12-29T01:11:11;98619.94;;;8.11;100.00
66381;BME280;53177;52.648;1.214;2022-12-29T01:13:37;98617.81;;;8.08;100.00
66381;BME280;53177;52.648;1.214;2022-12-29T01:16:04;98625.31;;;8.06;100.00
66381;BME280;53177;52.648;1.214;2022-12-29T01:18:30;98623.22;;;8.03;100.00
66381;BME280;53177;52.648;1.214;2022-12-29T01:21:04;98623.31;;;7.93;100.00
66381;BME280;53177;52.648;1.214;2022-12-29T01:23:31;98624.91;;;7.94;100.00
66381;BME280;53177;52.648;1.214;2022-12-29T01:25:57;98616.81;;;7.99;100.00
66381;BME280;53177;52.648;1.214;2022-12-29T01:28:23;98627.06;;;7.92;100.00
66381;BME280;53177;52.648;1.214;2022-12-29T01:30:49;98630.53;;;7.92;100.00
66381;BME280;53177;52.648;1.214;2022-12-29T01:33:14;98629.00;;;7.86;100.00
66381;BME280;53177;52.648;1.214;2022-12-29T01:35:40;98626.28;;;7.91;100.00
66381;BME280;53177;52.648;1.214;2022-12-29T01:38:05;98618.00;;;7.88;100.00
66381;BME280;53177;52.648;1.214;2022-12-29T01:40:31;98628.41;;;7.89;100.00
66381;BME280;53177;52.648;1.214;2022-12-29T01:42:57;98617.47;;;7.85;100.00
66381;BME280;53177;52.648;1.214;2022-12-29T01:45:23;98630.81;;;7.91;100.00
66381;BME280;53177;52.648;1.214;2022-12-29T01:50:33;98636.63;;;7.98;100.00
66381;BME280;53177;52.648;1.214;2022-12-29T01:53:23;98628.41;;;7.89;100.00
66381;BME280;53177;52.648;1.214;2022-12-29T01:55:53;98621.19;;;7.90;100.00
66381;BME280;53177;52.648;1.214;2022-12-29T01:58:22;98635.63;;;7.89;100.00
66381;BME280;53177;52.648;1.214;2022-12-29T02:00:48;98640.09;;;7.98;100.00
66381;BME280;53177;52.648;1.214;2022-12-29T02:03:14;98630.78;;;7.96;100.00
66381;BME280;53177;52.648;1.214;2022-12-29T02:05:51;98623.06;;;7.89;100.00
66381;BME280;53177;52.648;1.214;2022-12-29T02:08:20;98625.47;;;7.91;100.00
66381;BME280;53177;52.648;1.214;2022-12-29T02:10:47;98623.31;;;7.93;100.00
66381;BME280;53177;52.648;1.214;2022-12-29T02:13:16;98628.69;;;7.88;100.00
66381;BME280;53177;52.648;1.214;2022-12-29T02:18:39;98644.66;;;7.98;100.00
66381;BME280;53177;52.648;1.214;2022-12-29T02:21:17;98636.13;;;7.96;100.00
66381;BME280;53177;52.648;1.214;2022-12-29T02:30:12;98623.41;;;7.82;100.00
66381;BME280;53177;52.648;1.214;2022-12-29T02:33:05;98627.72;;;7.78;100.00
66381;BME280;53177;52.648;1.214;2022-12-29T02:46:20;98637.56;;;7.83;100.00
66381;BME280;53177;52.648;1.214;2022-12-29T02:49:15;98632.69;;;7.90;100.00
66381;BME280;53177;52.648;1.214;2022-12-29T02:51:58;98635.34;;;7.95;100.00
66381;BME280;53177;52.648;1.214;2022-12-29T02:54:25;98646.81;;;7.96;100.00
66381;BME280;53177;52.648;1.214;2022-12-29T02:57:13;98634.81;;;7.93;100.00
66381;BME280;53177;52.648;1.214;2022-12-29T02:59:42;98631.56;;;7.96;100.00
66381;BME280;53177;52.648;1.214;2022-12-29T03:02:39;98636.97;;;7.91;100.00
66381;BME280;53177;52.648;1.214;2022-12-29T03:08:25;98634.06;;;7.88;100.00
66381;BME280;53177;52.648;1.214;2022-12-29T03:11:01;98633.50;;;7.91;100.00
66381;BME280;53177;52.648;1.214;2022-12-29T03:22:05;98624.91;;;7.94;100.00
66381;BME280;53177;52.648;1.214;2022-12-29T03:24:54;98639.53;;;8.01;100.00
66381;BME280;53177;52.648;1.214;2022-12-29T03:27:30;98633.91;;;8.03;100.00
66381;BME280;53177;52.648;1.214;2022-12-29T03:30:00;98637.38;;;8.03;100.00
66381;BME280;53177;52.648;1.214;2022-12-29T03:32:36;98636.88;;;8.01;100.00
66381;BME280;53177;52.648;1.214;2022-12-29T03:35:05;98626.72;;;7.98;100.00
66381;BME280;53177;52.648;1.214;2022-12-29T03:37:37;98627.31;;;7.90;100.00
66381;BME280;53177;52.648;1.214;2022-12-29T03:40:04;98619.59;;;7.89;100.00
66381;BME280;53177;52.648;1.214;2022-12-29T03:42:32;98616.97;;;7.83;100.00
66381;BME280;53177;52.648;1.214;2022-12-29T03:44:59;98615.69;;;7.76;100.00
66381;BME280;53177;52.648;1.214;2022-12-29T03:47:25;98604.19;;;7.75;100.00
66381;BME280;53177;52.648;1.214;2022-12-29T03:49:51;98618.66;;;7.74;100.00
66381;BME280;53177;52.648;1.214;2022-12-29T03:52:17;98615.88;;;7.84;100.00
66381;BME280;53177;52.648;1.214;2022-12-29T03:54:43;98614.06;;;7.80;100.00
66381;BME280;53177;52.648;1.214;2022-12-29T03:57:10;98602.56;;;7.79;100.00
66381;BME280;53177;52.648;1.214;2022-12-29T03:59:35;98591.09;;;7.79;100.00
66381;BME280;53177;52.648;1.214;2022-12-29T04:02:01;98595.91;;;7.77;100.00
66381;BME280;53177;52.648;1.214;2022-12-29T04:04:26;98588.22;;;7.70;100.00
66381;BME280;53177;52.648;1.214;2022-12-29T04:06:52;98586.09;;;7.67;100.00
66381;BME280;53177;52.648;1.214;2022-12-29T04:09:17;98608.50;;;7.71;100.00
66381;BME280;53177;52.648;1.214;2022-12-29T04:11:42;98584.75;;;7.70;100.00
66381;BME280;53177;52.648;1.214;2022-12-29T04:14:08;98582.34;;;7.68;100.00
66381;BME280;53177;52.648;1.214;2022-12-29T04:16:34;98581.81;;;7.66;100.00
66381;BME280;53177;52.648;1.214;2022-12-29T04:19:04;98585.34;;;7.62;100.00
66381;BME280;53177;52.648;1.214;2022-12-29T04:21:30;98572.22;;;7.65;100.00
66381;BME280;53177;52.648;1.214;2022-12-29T04:23:55;98563.16;;;7.61;100.00
66381;BME280;53177;52.648;1.214;2022-12-29T04:26:20;98579.72;;;7.63;100.00
66381;BME280;53177;52.648;1.214;2022-12-29T04:28:46;98581.59;;;7.63;100.00
66381;BME280;53177;52.648;1.214;2022-12-29T04:31:11;98579.72;;;7.63;100.00
66381;BME280;53177;52.648;1.214;2022-12-29T04:33:37;98573.81;;;7.66;100.00
66381;BME280;53177;52.648;1.214;2022-12-29T04:36:02;98574.84;;;7.70;100.00
66381;BME280;53177;52.648;1.214;2022-12-29T04:38:35;98568.41;;;7.71;100.00
66381;BME280;53177;52.648;1.214;2022-12-29T04:41:01;98557.13;;;7.79;100.00
66381;BME280;53177;52.648;1.214;2022-12-29T04:43:27;98576.38;;;7.76;100.00
66381;BME280;53177;52.648;1.214;2022-12-29T04:45:53;98563.56;;;7.78;100.00
66381;BME280;53177;52.648;1.214;2022-12-29T04:48:19;98569.09;;;7.87;100.00
66381;BME280;53177;52.648;1.214;2022-12-29T04:50:47;98568.28;;;7.87;100.00
66381;BME280;53177;52.648;1.214;2022-12-29T04:53:14;98562.94;;;7.87;100.00
66381;BME280;53177;52.648;1.214;2022-12-29T04:55:39;98568.50;;;7.90;100.00
66381;BME280;53177;52.648;1.214;2022-12-29T04:58:11;98562.91;;;7.92;100.00
66381;BME280;53177;52.648;1.214;2022-12-29T05:00:37;98569.53;;;7.94;100.00
66381;BME280;53177;52.648;1.214;2022-12-29T05:03:02;98574.03;;;7.99;100.00
66381;BME280;53177;52.648;1.214;2022-12-29T05:05:27;98573.78;;;8.00;100.00
66381;BME280;53177;52.648;1.214;2022-12-29T05:07:53;98572.41;;;8.03;100.00
66381;BME280;53177;52.648;1.214;2022-12-29T05:10:19;98599.72;;;8.00;100.00
66381;BME280;53177;52.648;1.214;2022-12-29T05:12:45;98588.72;;;8.01;100.00
66381;BME280;53177;52.648;1.214;2022-12-29T05:15:11;98586.56;;;8.03;100.00
66381;BME280;53177;52.648;1.214;2022-12-29T05:17:36;98571.00;;;8.10;100.00
66381;BME280;53177;52.648;1.214;2022-12-29T05:20:03;98595.63;;;8.07;100.00
66381;BME280;53177;52.648;1.214;2022-12-29T05:22:29;98602.47;;;8.19;100.00
66381;BME280;53177;52.648;1.214;2022-12-29T05:24:54;98600.88;;;8.18;100.00
66381;BME280;53177;52.648;1.214;2022-12-29T05:27:20;98594.75;;;8.17;100.00
66381;BME280;53177;52.648;1.214;2022-12-29T05:29:45;98617.72;;;8.18;100.00
66381;BME280;53177;52.648;1.214;2022-12-29T05:32:10;98609.41;;;8.20;100.00
66381;BME280;53177;52.648;1.214;2022-12-29T05:34:36;98620.72;;;8.11;100.00
66381;BME280;53177;52.648;1.214;2022-12-29T05:37:02;98637.66;;;8.02;100.00
66381;BME280;53177;52.648;1.214;2022-12-29T05:39:28;98642.28;;;7.96;100.00
66381;BME280;53177;52.648;1.214;2022-12-29T05:41:54;98640.44;;;7.92;100.00
66381;BME280;53177;52.648;1.214;2022-12-29T05:44:19;98649.00;;;7.89;100.00
66381;BME280;53177;52.648;1.214;2022-12-29T05:46:44;98661.34;;;7.84;100.00
66381;BME280;53177;52.648;1.214;2022-12-29T05:49:10;98683.84;;;7.78;100.00
66381;BME280;53177;52.648;1.214;2022-12-29T05:51:35;98698.06;;;7.74;100.00
66381;BME280;53177;52.648;1.214;2022-12-29T05:54:07;98712.50;;;7.68;100.00
66381;BME280;53177;52.648;1.214;2022-12-29T05:56:32;98717.28;;;7.76;100.00
66381;BME280;53177;52.648;1.214;2022-12-29T05:58:58;98725.56;;;7.74;100.00
66381;BME280;53177;52.648;1.214;2022-12-29T06:01:23;98731.97;;;7.78;100.00
66381;BME280;53177;52.648;1.214;2022-12-29T06:03:49;98740.78;;;7.79;100.00
66381;BME280;53177;52.648;1.214;2022-12-29T06:06:14;98754.13;;;7.84;100.00
66381;BME280;53177;52.648;1.214;2022-12-29T06:08:40;98758.09;;;7.92;100.00
66381;BME280;53177;52.648;1.214;2022-12-29T06:11:06;98746.84;;;7.95;100.00
66381;BME280;53177;52.648;1.214;2022-12-29T06:13:31;98753.78;;;7.96;100.00
66381;BME280;53177;52.648;1.214;2022-12-29T06:15:57;98763.69;;;7.90;100.00
66381;BME280;53177;52.648;1.214;2022-12-29T06:18:22;98764.53;;;7.91;100.00
66381;BME280;53177;52.648;1.214;2022-12-29T06:20:48;98778.19;;;7.84;100.00
66381;BME280;53177;52.648;1.214;2022-12-29T06:23:13;98769.69;;;7.72;100.00
66381;BME280;53177;52.648;1.214;2022-12-29T06:25:39;98780.16;;;7.68;100.00
66381;BME280;53177;52.648;1.214;2022-12-29T06:28:04;98788.16;;;7.63;100.00
66381;BME280;53177;52.648;1.214;2022-12-29T06:30:33;98794.91;;;7.55;100.00
66381;BME280;53177;52.648;1.214;2022-12-29T06:32:58;98792.53;;;7.49;100.00
66381;BME280;53177;52.648;1.214;2022-12-29T06:35:24;98798.19;;;7.42;100.00
66381;BME280;53177;52.648;1.214;2022-12-29T06:37:50;98802.72;;;7.37;100.00
66381;BME280;53177;52.648;1.214;2022-12-29T06:40:17;98817.97;;;7.31;100.00
66381;BME280;53177;52.648;1.214;2022-12-29T06:42:43;98831.06;;;7.32;100.00
66381;BME280;53177;52.648;1.214;2022-12-29T06:45:09;98851.66;;;7.22;100.00
66381;BME280;53177;52.648;1.214;2022-12-29T06:47:35;98848.72;;;7.23;100.00
66381;BME280;53177;52.648;1.214;2022-12-29T06:50:00;98852.72;;;7.21;100.00
66381;BME280;53177;52.648;1.214;2022-12-29T06:52:26;98858.09;;;7.16;100.00
66381;BME280;53177;52.648;1.214;2022-12-29T06:54:51;98865.81;;;7.17;100.00
66381;BME280;53177;52.648;1.214;2022-12-29T06:57:17;98867.16;;;7.09;100.00
66381;BME280;53177;52.648;1.214;2022-12-29T06:59:42;98879.72;;;7.09;100.00
66381;BME280;53177;52.648;1.214;2022-12-29T07:02:10;98889.31;;;7.05;100.00
66381;BME280;53177;52.648;1.214;2022-12-29T07:04:35;98884.00;;;7.05;100.00
66381;BME280;53177;52.648;1.214;2022-12-29T07:07:01;98904.28;;;7.01;100.00
66381;BME280;53177;52.648;1.214;2022-12-29T07:09:26;98903.78;;;6.94;100.00
66381;BME280;53177;52.648;1.214;2022-12-29T07:11:52;98914.97;;;6.91;100.00
66381;BME280;53177;52.648;1.214;2022-12-29T07:14:17;98914.97;;;6.86;100.00
66381;BME280;53177;52.648;1.214;2022-12-29T07:16:42;98937.41;;;6.84;100.00
66381;BME280;53177;52.648;1.214;2022-12-29T07:19:08;98929.66;;;6.83;100.00
66381;BME280;53177;52.648;1.214;2022-12-29T07:21:33;98934.19;;;6.82;100.00
66381;BME280;53177;52.648;1.214;2022-12-29T07:23:59;98953.69;;;6.78;100.00
66381;BME280;53177;52.648;1.214;2022-12-29T07:26:24;98954.22;;;6.75;100.00
66381;BME280;53177;52.648;1.214;2022-12-29T07:28:50;98968.38;;;6.70;100.00
66381;BME280;53177;52.648;1.214;2022-12-29T07:31:20;98964.09;;;6.74;100.00
66381;BME280;53177;52.648;1.214;2022-12-29T07:33:46;98976.38;;;6.70;100.00
66381;BME280;53177;52.648;1.214;2022-12-29T07:36:12;98983.81;;;6.63;100.00
66381;BME280;53177;52.648;1.214;2022-12-29T07:38:39;98984.34;;;6.65;100.00
66381;BME280;53177;52.648;1.214;2022-12-29T07:41:06;98999.31;;;6.61;100.00
66381;BME280;53177;52.648;1.214;2022-12-29T07:43:36;99006.22;;;6.57;100.00
66381;BME280;53177;52.648;1.214;2022-12-29T07:46:05;99015.06;;;6.68;100.00
66381;BME280;53177;52.648;1.214;2022-12-29T07:48:33;99025.19;;;6.66;100.00
66381;BME280;53177;52.648;1.214;2022-12-29T07:51:07;99034.78;;;6.62;100.00
66381;BME280;53177;52.648;1.214;2022-12-29T07:53:33;99034.00;;;6.61;100.00
66381;BME280;53177;52.648;1.214;2022-12-29T07:55:59;99052.63;;;6.51;100.00
66381;BME280;53177;52.648;1.214;2022-12-29T07:58:24;99043.03;;;6.50;100.00
66381;BME280;53177;52.648;1.214;2022-12-29T08:00:54;99058.75;;;6.51;100.00
66381;BME280;53177;52.648;1.214;2022-12-29T08:03:20;99065.44;;;6.49;100.00
66381;BME280;53177;52.648;1.214;2022-12-29T08:05:45;99077.97;;;6.48;100.00
66381;BME280;53177;52.648;1.214;2022-12-29T08:08:10;99078.47;;;6.45;100.00
66381;BME280;53177;52.648;1.214;2022-12-29T08:10:36;99082.47;;;6.43;100.00
66381;BME280;53177;52.648;1.214;2022-12-29T08:13:01;99088.09;;;6.51;100.00
66381;BME280;53177;52.648;1.214;2022-12-29T08:15:27;99092.66;;;6.51;100.00
66381;BME280;53177;52.648;1.214;2022-12-29T08:17:52;99093.97;;;6.48;100.00
66381;BME280;53177;52.648;1.214;2022-12-29T08:20:18;99091.03;;;6.50;100.00
66381;BME280;53177;52.648;1.214;2022-12-29T08:22:44;99090.75;;;6.46;100.00
66381;BME280;53177;52.648;1.214;2022-12-29T08:25:09;99105.44;;;6.49;100.00
66381;BME280;53177;52.648;1.214;2022-12-29T08:27:35;99110.22;;;6.47;100.00
66381;BME280;53177;52.648;1.214;2022-12-29T08:30:00;99105.97;;;6.51;100.00
66381;BME280;53177;52.648;1.214;2022-12-29T08:32:27;99102.50;;;6.45;100.00
66381;BME280;53177;52.648;1.214;2022-12-29T08:34:53;99114.75;;;6.46;100.00
66381;BME280;53177;52.648;1.214;2022-12-29T08:37:19;99117.22;;;6.53;100.00
66381;BME280;53177;52.648;1.214;2022-12-29T08:39:44;99118.53;;;6.50;100.00
66381;BME280;53177;52.648;1.214;2022-12-29T08:42:09;99117.22;;;6.53;100.00
66381;BME280;53177;52.648;1.214;2022-12-29T08:44:35;99123.63;;;6.57;100.00
66381;BME280;53177;52.648;1.214;2022-12-29T08:47:00;99128.19;;;6.56;100.00
66381;BME280;53177;52.648;1.214;2022-12-29T08:49:26;99135.66;;;6.65;100.00
66381;BME280;53177;52.648;1.214;2022-12-29T08:51:51;99138.59;;;6.63;100.00
66381;BME280;53177;52.648;1.214;2022-12-29T08:54:16;99153.81;;;6.63;100.00
66381;BME280;53177;52.648;1.214;2022-12-29T08:56:42;99151.16;;;6.63;100.00
66381;BME280;53177;52.648;1.214;2022-12-29T08:59:07;99165.31;;;6.73;100.00
66381;BME280;53177;52.648;1.214;2022-12-29T09:01:33;99164.25;;;6.69;100.00
66381;BME280;53177;52.648;1.214;2022-12-29T09:04:01;99176.28;;;6.72;100.00
66381;BME280;53177;52.648;1.214;2022-12-29T09:06:27;99183.78;;;6.75;100.00
66381;BME280;53177;52.648;1.214;2022-12-29T09:08:54;99182.44;;;6.82;100.00
66381;BME280;53177;52.648;1.214;2022-12-29T09:11:23;99190.47;;;6.82;100.00
66381;BME280;53177;52.648;1.214;2022-12-29T09:13:49;99192.63;;;6.91;100.00
66381;BME280;53177;52.648;1.214;2022-12-29T09:16:16;99190.75;;;6.86;100.00
66381;BME280;53177;52.648;1.214;2022-12-29T09:18:42;99199.59;;;6.92;100.00
66381;BME280;53177;52.648;1.214;2022-12-29T09:21:09;99198.28;;;6.94;100.00
66381;BME280;53177;52.648;1.214;2022-12-29T09:23:35;99202.81;;;6.99;100.00
66381;BME280;53177;52.648;1.214;2022-12-29T09:26:01;99200.44;;;7.02;100.00
66381;BME280;53177;52.648;1.214;2022-12-29T09:28:27;99210.34;;;7.07;100.00
66381;BME280;53177;52.648;1.214;2022-12-29T09:30:54;99209.28;;;7.13;100.00
66381;BME280;53177;52.648;1.214;2022-12-29T09:33:20;99209.56;;;7.17;100.00
66381;BME280;53177;52.648;1.214;2022-12-29T09:35:51;99221.34;;;7.21;100.00
66381;BME280;53177;52.648;1.214;2022-12-29T09:38:17;99225.88;;;7.20;100.00
66381;BME280;53177;52.648;1.214;2022-12-29T09:40:45;99224.84;;;7.26;100.00
66381;BME280;53177;52.648;1.214;2022-12-29T09:48:51;99250.28;;;7.49;100.00
66381;BME280;53177;52.648;1.214;2022-12-29T09:51:23;99233.16;;;7.45;100.00
66381;BME280;53177;52.648;1.214;2022-12-29T09:54:00;99232.94;;;7.47;100.00
66381;BME280;53177;52.648;1.214;2022-12-29T09:56:27;99241.75;;;7.57;100.00
66381;BME280;53177;52.648;1.214;2022-12-29T09:59:08;99247.38;;;7.61;100.00
66381;BME280;53177;52.648;1.214;2022-12-29T10:01:57;99251.13;;;7.65;100.00
66381;BME280;53177;52.648;1.214;2022-12-29T10:04:28;99259.72;;;7.77;100.00
66381;BME280;53177;52.648;1.214;2022-12-29T10:07:03;99256.00;;;7.89;100.00
66381;BME280;53177;52.648;1.214;2022-12-29T10:17:39;99264.06;;;8.09;100.00
66381;BME280;53177;52.648;1.214;2022-12-29T10:25:19;99266.19;;;8.12;100.00
66381;BME280;53177;52.648;1.214;2022-12-29T10:27:48;99263.78;;;8.10;100.00
66381;BME280;53177;52.648;1.214;2022-12-29T10:30:16;99276.34;;;8.20;100.00
66381;BME280;53177;52.648;1.214;2022-12-29T10:32:50;99266.72;;;8.19;100.00
66381;BME280;53177;52.648;1.214;2022-12-29T10:35:23;99269.66;;;8.07;100.00
66381;BME280;53177;52.648;1.214;2022-12-29T10:37:56;99268.31;;;8.10;100.00
66381;BME280;53177;52.648;1.214;2022-12-29T10:40:33;99269.91;;;8.21;100.00
66381;BME280;53177;52.648;1.214;2022-12-29T10:43:11;99277.16;;;8.26;100.00
66381;BME280;53177;52.648;1.214;2022-12-29T10:45:39;99274.75;;;8.19;100.00
66381;BME280;53177;52.648;1.214;2022-12-29T10:48:34;99279.56;;;8.22;100.00
66381;BME280;53177;52.648;1.214;2022-12-29T10:51:02;99287.59;;;8.27;100.00
66381;BME280;53177;52.648;1.214;2022-12-29T10:53:47;99298.31;;;8.32;100.00
66381;BME280;53177;52.648;1.214;2022-12-29T10:56:28;99300.47;;;8.41;100.00
66381;BME280;53177;52.648;1.214;2022-12-29T10:58:58;99280.69;;;8.37;100.00
66381;BME280;53177;52.648;1.214;2022-12-29T11:01:32;99284.16;;;8.37;100.00
66381;BME280;53177;52.648;1.214;2022-12-29T11:04:07;99286.03;;;8.47;100.00
66381;BME280;53177;52.648;1.214;2022-12-29T11:06:42;99292.72;;;8.54;100.00
66381;BME280;53177;52.648;1.214;2022-12-29T11:09:13;99288.97;;;8.55;100.00
66381;BME280;53177;52.648;1.214;2022-12-29T11:11:40;99285.78;;;8.48;100.00
66381;BME280;53177;52.648;1.214;2022-12-29T11:14:32;99290.84;;;8.55;100.00
66381;BME280;53177;52.648;1.214;2022-12-29T11:17:00;99302.09;;;8.62;100.00
66381;BME280;53177;52.648;1.214;2022-12-29T11:19:31;99298.88;;;8.50;100.00
66381;BME280;53177;52.648;1.214;2022-12-29T11:24:46;99316.53;;;8.61;100.00
66381;BME280;53177;52.648;1.214;2022-12-29T11:27:17;99308.78;;;8.80;100.00
66381;BME280;53177;52.648;1.214;2022-12-29T11:29:45;99305.81;;;8.81;100.00
66381;BME280;53177;52.648;1.214;2022-12-29T11:32:25;99305.25;;;8.79;100.00
66381;BME280;53177;52.648;1.214;2022-12-29T11:34:51;99313.28;;;8.79;100.00
66381;BME280;53177;52.648;1.214;2022-12-29T11:37:18;99312.25;;;8.75;100.00
66381;BME280;53177;52.648;1.214;2022-12-29T11:39:55;99314.91;;;8.70;100.00
66381;BME280;53177;52.648;1.214;2022-12-29T11:42:40;99318.41;;;8.76;100.00
66381;BME280;53177;52.648;1.214;2022-12-29T11:45:18;99312.53;;;8.58;100.00
66381;BME280;53177;52.648;1.214;2022-12-29T11:47:49;99313.59;;;8.63;100.00
66381;BME280;53177;52.648;1.214;2022-12-29T11:50:37;99314.66;;;8.67;100.00
66381;BME280;53177;52.648;1.214;2022-12-29T11:55:33;99326.69;;;8.69;100.00
66381;BME280;53177;52.648;1.214;2022-12-29T11:58:02;99314.94;;;8.75;100.00
66381;BME280;53177;52.648;1.214;2022-12-29T12:00:32;99326.16;;;8.88;100.00
66381;BME280;53177;52.648;1.214;2022-12-29T12:03:21;99328.56;;;8.79;100.00
66381;BME280;53177;52.648;1.214;2022-12-29T12:05:51;99331.53;;;8.77;100.00
66381;BME280;53177;52.648;1.214;2022-12-29T12:08:59;99333.91;;;8.79;100.00
66381;BME280;53177;52.648;1.214;2022-12-29T12:11:28;99336.34;;;8.70;100.00
66381;BME280;53177;52.648;1.214;2022-12-29T12:16:52;99333.66;;;8.55;100.00
66381;BME280;53177;52.648;1.214;2022-12-29T12:19:41;99345.47;;;8.54;100.00
66381;BME280;53177;52.648;1.214;2022-12-29T12:22:40;99348.13;;;8.59;100.00
66381;BME280;53177;52.648;1.214;2022-12-29T12:25:23;99339.53;;;8.52;100.00
66381;BME280;53177;52.648;1.214;2022-12-29T12:27:54;99342.78;;;8.54;100.00
66381;BME280;53177;52.648;1.214;2022-12-29T12:30:25;99347.59;;;8.62;100.00
66381;BME280;53177;52.648;1.214;2022-12-29T12:32:58;99355.38;;;8.48;100.00
66381;BME280;53177;52.648;1.214;2022-12-29T12:40:53;99355.53;;;8.11;100.00
66381;BME280;53177;52.648;1.214;2022-12-29T12:43:39;99363.84;;;8.09;100.00
66381;BME280;53177;52.648;1.214;2022-12-29T12:49:00;99367.09;;;8.27;100.00
66381;BME280;53177;52.648;1.214;2022-12-29T12:54:28;99365.25;;;8.38;100.00
66381;BME280;53177;52.648;1.214;2022-12-29T12:57:10;99372.16;;;8.33;100.00
66381;BME280;53177;52.648;1.214;2022-12-29T13:00:01;99371.66;;;8.47;100.00
66381;BME280;53177;52.648;1.214;2022-12-29T13:05:24;99370.09;;;8.71;100.00
66381;BME280;53177;52.648;1.214;2022-12-29T13:11:16;99373.31;;;8.53;100.00
66381;BME280;53177;52.648;1.214;2022-12-29T13:16:34;99383.94;;;8.32;100.00
66381;BME280;53177;52.648;1.214;2022-12-29T13:22:20;99384.19;;;8.26;100.00
66381;BME280;53177;52.648;1.214;2022-12-29T13:30:10;99372.66;;;8.05;100.00
66381;BME280;53177;52.648;1.214;2022-12-29T13:38:14;99386.53;;;7.97;100.00
66381;BME280;53177;52.648;1.214;2022-12-29T13:40:45;99382.25;;;7.91;100.00
66381;BME280;53177;52.648;1.214;2022-12-29T13:43:13;99387.34;;;8.02;100.00
66381;BME280;53177;52.648;1.214;2022-12-29T13:45:40;99400.44;;;7.99;100.00
66381;BME280;53177;52.648;1.214;2022-12-29T13:48:20;99386.50;;;7.92;100.00
66381;BME280;53177;52.648;1.214;2022-12-29T13:50:58;99388.66;;;7.95;100.00
66381;BME280;53177;52.648;1.214;2022-12-29T13:56:05;99391.34;;;8.00;100.00
66381;BME280;53177;52.648;1.214;2022-12-29T14:03:49;99381.19;;;7.97;100.00
66381;BME280;53177;52.648;1.214;2022-12-29T14:09:02;99385.41;;;7.82;100.00
66381;BME280;53177;52.648;1.214;2022-12-29T14:11:34;99390.22;;;7.85;100.00
66381;BME280;53177;52.648;1.214;2022-12-29T14:14:30;99386.47;;;7.81;100.00
66381;BME280;53177;52.648;1.214;2022-12-29T14:17:09;99392.34;;;7.78;100.00
66381;BME280;53177;52.648;1.214;2022-12-29T14:19:39;99390.75;;;7.82;100.00
66381;BME280;53177;52.648;1.214;2022-12-29T14:22:07;99382.75;;;7.82;100.00
66381;BME280;53177;52.648;1.214;2022-12-29T14:34:45;99393.97;;;7.84;100.00
66381;BME280;53177;52.648;1.214;2022-12-29T14:40:08;99403.03;;;7.78;100.00
66381;BME280;53177;52.648;1.214;2022-12-29T14:42:41;99398.47;;;7.69;100.00
66381;BME280;53177;52.648;1.214;2022-12-29T14:47:40;99408.09;;;7.70;100.00
66381;BME280;53177;52.648;1.214;2022-12-29T14:53:03;99429.94;;;7.62;100.00
66381;BME280;53177;52.648;1.214;2022-12-29T14:55:54;99432.56;;;7.51;100.00
66381;BME280;53177;52.648;1.214;2022-12-29T14:58:26;99440.31;;;7.53;100.00
66381;BME280;53177;52.648;1.214;2022-12-29T15:00:53;99435.59;;;7.65;100.00
66381;BME280;53177;52.648;1.214;2022-12-29T15:03:23;99442.00;;;7.59;100.00
66381;BME280;53177;52.648;1.214;2022-12-29T15:08:18;99439.22;;;7.44;100.00
66381;BME280;53177;52.648;1.214;2022-12-29T15:13:45;99437.41;;;7.17;100.00
66381;BME280;53177;52.648;1.214;2022-12-29T15:16:32;99452.16;;;7.20;100.00
66381;BME280;53177;52.648;1.214;2022-12-29T15:18:58;99453.75;;;7.21;100.00
66381;BME280;53177;52.648;1.214;2022-12-29T15:21:27;99449.16;;;7.11;100.00
66381;BME280;53177;52.648;1.214;2022-12-29T15:23:54;99449.09;;;7.06;100.00
66381;BME280;53177;52.648;1.214;2022-12-29T15:26:21;99454.16;;;7.02;100.00